sensor_id;sensor_type;location;lat;lon;timestamp;P1;durP1;ratioP1;P2;durP2;ratioP2
71176;SDS011;58877;51.992;4.504;2024-01-30T00:02:05;15.44;;;15.33;;
71176;SDS011;58877;51.992;4.504;2024-01-30T00:04:31;15.68;;;15.53;;
71176;SDS011;58877;51.992;4.504;2024-01-30T00:06:57;15.15;;;14.94;;
71176;SDS011;58877;51.992;4.504;2024-01-30T00:09:22;15.55;;;15.29;;
71176;SDS011;58877;51.992;4.504;2024-01-30T00:11:48;14.31;;;14.21;;
71176;SDS011;58877;51.992;4.504;2024-01-30T00:14:14;13.70;;;13.57;;
71176;SDS011;58877;51.992;4.504;2024-01-30T00:16:39;12.33;;;12.28;;
71176;SDS011;58877;51.992;4.504;2024-01-30T00:19:05;10.76;;;10.72;;
71176;SDS011;58877;51.992;4.504;2024-01-30T00:21:33;10.54;;;10.50;;
71176;SDS011;58877;51.992;4.504;2024-01-30T00:23:59;10.56;;;10.54;;
71176;SDS011;58877;51.992;4.504;2024-01-30T00:26:25;9.84;;;9.83;;
71176;SDS011;58877;51.992;4.504;2024-01-30T00:28:50;9.39;;;9.39;;
71176;SDS011;58877;51.992;4.504;2024-01-30T00:31:16;9.13;;;9.12;;
71176;SDS011;58877;51.992;4.504;2024-01-30T00:33:42;9.22;;;9.21;;
71176;SDS011;58877;51.992;4.504;2024-01-30T00:36:08;8.66;;;8.66;;
71176;SDS011;58877;51.992;4.504;2024-01-30T00:38:35;8.55;;;8.53;;
71176;SDS011;58877;51.992;4.504;2024-01-30T00:41:01;8.84;;;8.83;;
71176;SDS011;58877;51.992;4.504;2024-01-30T00:43:30;8.99;;;8.98;;
71176;SDS011;58877;51.992;4.504;2024-01-30T00:45:59;8.28;;;8.27;;
71176;SDS011;58877;51.992;4.504;2024-01-30T00:48:27;8.78;;;8.75;;
71176;SDS011;58877;51.992;4.504;2024-01-30T00:50:53;8.14;;;8.13;;
71176;SDS011;58877;51.992;4.504;2024-01-30T00:53:18;8.36;;;8.36;;
71176;SDS011;58877;51.992;4.504;2024-01-30T00:55:44;7.75;;;7.75;;
71176;SDS011;58877;51.992;4.504;2024-01-30T00:58:12;7.92;;;7.92;;
71176;SDS011;58877;51.992;4.504;2024-01-30T01:00:38;7.67;;;7.67;;
71176;SDS011;58877;51.992;4.504;2024-01-30T01:03:04;7.69;;;7.66;;
71176;SDS011;58877;51.992;4.504;2024-01-30T01:05:30;7.66;;;7.64;;
71176;SDS011;58877;51.992;4.504;2024-01-30T01:07:55;7.49;;;7.49;;
71176;SDS011;58877;51.992;4.504;2024-01-30T01:10:21;8.09;;;8.09;;
71176;SDS011;58877;51.992;4.504;2024-01-30T01:12:47;7.69;;;7.69;;
71176;SDS011;58877;51.992;4.504;2024-01-30T01:15:13;7.61;;;7.61;;
71176;SDS011;58877;51.992;4.504;2024-01-30T01:17:39;8.01;;;7.98;;
71176;SDS011;58877;51.992;4.504;2024-01-30T01:20:06;7.55;;;7.55;;
71176;SDS011;58877;51.992;4.504;2024-01-30T01:22:33;8.07;;;8.07;;
71176;SDS011;58877;51.992;4.504;2024-01-30T01:24:59;7.45;;;7.45;;
71176;SDS011;58877;51.992;4.504;2024-01-30T01:27:25;7.77;;;7.76;;
71176;SDS011;58877;51.992;4.504;2024-01-30T01:29:52;7.65;;;7.62;;
71176;SDS011;58877;51.992;4.504;2024-01-30T01:32:21;7.21;;;7.20;;
71176;SDS011;58877;51.992;4.504;2024-01-30T01:34:46;7.69;;;7.69;;
71176;SDS011;58877;51.992;4.504;2024-01-30T01:37:12;7.79;;;7.79;;
71176;SDS011;58877;51.992;4.504;2024-01-30T01:39:38;7.91;;;7.91;;
71176;SDS011;58877;51.992;4.504;2024-01-30T01:42:07;7.89;;;7.88;;
71176;SDS011;58877;51.992;4.504;2024-01-30T01:44:34;7.27;;;7.27;;
71176;SDS011;58877;51.992;4.504;2024-01-30T01:47:03;7.44;;;7.43;;
71176;SDS011;58877;51.992;4.504;2024-01-30T01:49:29;8.15;;;8.14;;
71176;SDS011;58877;51.992;4.504;2024-01-30T01:51:58;7.72;;;7.70;;
71176;SDS011;58877;51.992;4.504;2024-01-30T01:54:36;7.65;;;7.64;;
71176;SDS011;58877;51.992;4.504;2024-01-30T01:57:11;7.66;;;7.58;;
71176;SDS011;58877;51.992;4.504;2024-01-30T01:59:40;7.60;;;7.60;;
71176;SDS011;58877;51.992;4.504;2024-01-30T02:02:11;7.70;;;7.70;;
71176;SDS011;58877;51.992;4.504;2024-01-30T02:04:41;7.34;;;7.31;;
71176;SDS011;58877;51.992;4.504;2024-01-30T02:07:07;7.27;;;7.25;;
71176;SDS011;58877;51.992;4.504;2024-01-30T02:09:32;7.74;;;7.74;;
71176;SDS011;58877;51.992;4.504;2024-01-30T02:12:01;7.78;;;7.77;;
71176;SDS011;58877;51.992;4.504;2024-01-30T02:14:27;7.38;;;7.34;;
71176;SDS011;58877;51.992;4.504;2024-01-30T02:16:53;7.85;;;7.81;;
71176;SDS011;58877;51.992;4.504;2024-01-30T02:19:18;7.84;;;7.82;;
71176;SDS011;58877;51.992;4.504;2024-01-30T02:21:45;7.86;;;7.85;;
71176;SDS011;58877;51.992;4.504;2024-01-30T02:24:12;7.53;;;7.53;;
71176;SDS011;58877;51.992;4.504;2024-01-30T02:26:37;7.21;;;7.21;;
71176;SDS011;58877;51.992;4.504;2024-01-30T02:29:03;7.54;;;7.54;;
71176;SDS011;58877;51.992;4.504;2024-01-30T02:31:28;7.75;;;7.74;;
71176;SDS011;58877;51.992;4.504;2024-01-30T02:33:54;8.14;;;8.14;;
71176;SDS011;58877;51.992;4.504;2024-01-30T02:36:19;7.67;;;7.67;;
71176;SDS011;58877;51.992;4.504;2024-01-30T02:38:45;7.33;;;7.30;;
71176;SDS011;58877;51.992;4.504;2024-01-30T02:41:11;7.96;;;7.95;;
71176;SDS011;58877;51.992;4.504;2024-01-30T02:43:37;7.81;;;7.74;;
71176;SDS011;58877;51.992;4.504;2024-01-30T02:46:03;7.56;;;7.52;;
71176;SDS011;58877;51.992;4.504;2024-01-30T02:48:28;7.33;;;7.33;;
71176;SDS011;58877;51.992;4.504;2024-01-30T02:50:54;7.32;;;7.26;;
71176;SDS011;58877;51.992;4.504;2024-01-30T02:53:19;7.45;;;7.44;;
71176;SDS011;58877;51.992;4.504;2024-01-30T02:55:45;7.90;;;7.88;;
71176;SDS011;58877;51.992;4.504;2024-01-30T02:58:10;8.04;;;8.03;;
71176;SDS011;58877;51.992;4.504;2024-01-30T03:00:36;7.74;;;7.74;;
71176;SDS011;58877;51.992;4.504;2024-01-30T03:03:01;8.21;;;8.21;;
71176;SDS011;58877;51.992;4.504;2024-01-30T03:05:27;7.85;;;7.85;;
71176;SDS011;58877;51.992;4.504;2024-01-30T03:07:53;7.70;;;7.70;;
71176;SDS011;58877;51.992;4.504;2024-01-30T03:10:19;8.16;;;8.12;;
71176;SDS011;58877;51.992;4.504;2024-01-30T03:12:44;7.96;;;7.93;;
71176;SDS011;58877;51.992;4.504;2024-01-30T03:15:10;7.38;;;7.37;;
71176;SDS011;58877;51.992;4.504;2024-01-30T03:17:35;7.43;;;7.43;;
71176;SDS011;58877;51.992;4.504;2024-01-30T03:20:02;7.50;;;7.48;;
71176;SDS011;58877;51.992;4.504;2024-01-30T03:22:29;7.71;;;7.66;;
71176;SDS011;58877;51.992;4.504;2024-01-30T03:24:54;7.86;;;7.84;;
71176;SDS011;58877;51.992;4.504;2024-01-30T03:27:20;7.84;;;7.83;;
71176;SDS011;58877;51.992;4.504;2024-01-30T03:29:46;7.95;;;7.90;;
71176;SDS011;58877;51.992;4.504;2024-01-30T03:32:11;7.94;;;7.94;;
71176;SDS011;58877;51.992;4.504;2024-01-30T03:34:37;7.66;;;7.65;;
71176;SDS011;58877;51.992;4.504;2024-01-30T03:37:02;7.88;;;7.84;;
71176;SDS011;58877;51.992;4.504;2024-01-30T03:39:28;7.63;;;7.60;;
71176;SDS011;58877;51.992;4.504;2024-01-30T03:41:54;7.93;;;7.93;;
71176;SDS011;58877;51.992;4.504;2024-01-30T03:44:19;8.13;;;8.12;;
71176;SDS011;58877;51.992;4.504;2024-01-30T03:46:45;7.85;;;7.84;;
71176;SDS011;58877;51.992;4.504;2024-01-30T03:49:11;7.58;;;7.58;;
71176;SDS011;58877;51.992;4.504;2024-01-30T03:51:36;7.60;;;7.60;;
71176;SDS011;58877;51.992;4.504;2024-01-30T03:54:02;7.59;;;7.59;;
71176;SDS011;58877;51.992;4.504;2024-01-30T03:56:28;7.60;;;7.60;;
71176;SDS011;58877;51.992;4.504;2024-01-30T03:58:54;7.94;;;7.89;;
71176;SDS011;58877;51.992;4.504;2024-01-30T04:01:21;8.49;;;8.39;;
71176;SDS011;58877;51.992;4.504;2024-01-30T04:03:46;8.11;;;8.09;;
71176;SDS011;58877;51.992;4.504;2024-01-30T04:06:12;7.85;;;7.84;;
71176;SDS011;58877;51.992;4.504;2024-01-30T04:08:40;8.31;;;8.31;;
71176;SDS011;58877;51.992;4.504;2024-01-30T04:11:06;8.14;;;8.09;;
71176;SDS011;58877;51.992;4.504;2024-01-30T04:13:32;7.90;;;7.87;;
71176;SDS011;58877;51.992;4.504;2024-01-30T04:15:59;7.76;;;7.75;;
71176;SDS011;58877;51.992;4.504;2024-01-30T04:18:31;7.74;;;7.74;;
71176;SDS011;58877;51.992;4.504;2024-01-30T04:20:58;7.91;;;7.91;;
71176;SDS011;58877;51.992;4.504;2024-01-30T04:23:30;7.98;;;7.98;;
71176;SDS011;58877;51.992;4.504;2024-01-30T04:25:56;8.22;;;8.22;;
71176;SDS011;58877;51.992;4.504;2024-01-30T04:28:27;7.46;;;7.45;;
71176;SDS011;58877;51.992;4.504;2024-01-30T04:30:55;7.97;;;7.97;;
71176;SDS011;58877;51.992;4.504;2024-01-30T04:33:21;8.23;;;8.23;;
71176;SDS011;58877;51.992;4.504;2024-01-30T04:35:54;7.21;;;7.21;;
71176;SDS011;58877;51.992;4.504;2024-01-30T04:38:20;7.64;;;7.63;;
71176;SDS011;58877;51.992;4.504;2024-01-30T04:40:56;7.56;;;7.56;;
71176;SDS011;58877;51.992;4.504;2024-01-30T04:43:22;7.26;;;7.25;;
71176;SDS011;58877;51.992;4.504;2024-01-30T04:45:48;7.50;;;7.50;;
71176;SDS011;58877;51.992;4.504;2024-01-30T04:48:29;7.30;;;7.30;;
71176;SDS011;58877;51.992;4.504;2024-01-30T04:50:58;7.36;;;7.36;;
71176;SDS011;58877;51.992;4.504;2024-01-30T04:53:26;7.36;;;7.36;;
71176;SDS011;58877;51.992;4.504;2024-01-30T04:55:54;7.24;;;7.22;;
71176;SDS011;58877;51.992;4.504;2024-01-30T04:58:20;7.86;;;7.86;;
71176;SDS011;58877;51.992;4.504;2024-01-30T05:00:48;7.32;;;7.32;;
71176;SDS011;58877;51.992;4.504;2024-01-30T05:03:17;7.53;;;7.51;;
71176;SDS011;58877;51.992;4.504;2024-01-30T05:05:47;8.11;;;8.05;;
71176;SDS011;58877;51.992;4.504;2024-01-30T05:08:16;7.68;;;7.64;;
71176;SDS011;58877;51.992;4.504;2024-01-30T05:10:42;8.18;;;8.15;;
71176;SDS011;58877;51.992;4.504;2024-01-30T05:13:10;8.05;;;8.01;;
71176;SDS011;58877;51.992;4.504;2024-01-30T05:15:39;7.93;;;7.89;;
71176;SDS011;58877;51.992;4.504;2024-01-30T05:18:04;7.75;;;7.71;;
71176;SDS011;58877;51.992;4.504;2024-01-30T05:20:30;7.72;;;7.67;;
71176;SDS011;58877;51.992;4.504;2024-01-30T05:22:56;7.44;;;7.41;;
71176;SDS011;58877;51.992;4.504;2024-01-30T05:25:24;7.89;;;7.88;;
71176;SDS011;58877;51.992;4.504;2024-01-30T05:27:52;7.78;;;7.75;;
71176;SDS011;58877;51.992;4.504;2024-01-30T05:30:17;8.24;;;8.15;;
71176;SDS011;58877;51.992;4.504;2024-01-30T05:32:43;7.35;;;7.32;;
71176;SDS011;58877;51.992;4.504;2024-01-30T05:35:09;7.91;;;7.90;;
71176;SDS011;58877;51.992;4.504;2024-01-30T05:37:37;7.87;;;7.87;;
71176;SDS011;58877;51.992;4.504;2024-01-30T05:40:03;7.84;;;7.83;;
71176;SDS011;58877;51.992;4.504;2024-01-30T05:42:30;8.06;;;8.03;;
71176;SDS011;58877;51.992;4.504;2024-01-30T05:44:55;7.77;;;7.77;;
71176;SDS011;58877;51.992;4.504;2024-01-30T05:47:22;8.25;;;8.25;;
71176;SDS011;58877;51.992;4.504;2024-01-30T05:49:48;8.14;;;8.14;;
71176;SDS011;58877;51.992;4.504;2024-01-30T05:52:13;7.66;;;7.66;;
71176;SDS011;58877;51.992;4.504;2024-01-30T05:54:40;8.09;;;8.07;;
71176;SDS011;58877;51.992;4.504;2024-01-30T05:57:06;7.69;;;7.68;;
71176;SDS011;58877;51.992;4.504;2024-01-30T05:59:34;7.77;;;7.77;;
71176;SDS011;58877;51.992;4.504;2024-01-30T06:02:01;7.82;;;7.81;;
71176;SDS011;58877;51.992;4.504;2024-01-30T06:04:27;7.68;;;7.63;;
71176;SDS011;58877;51.992;4.504;2024-01-30T06:06:52;7.57;;;7.57;;
71176;SDS011;58877;51.992;4.504;2024-01-30T06:09:18;7.64;;;7.62;;
71176;SDS011;58877;51.992;4.504;2024-01-30T06:11:44;7.89;;;7.88;;
71176;SDS011;58877;51.992;4.504;2024-01-30T06:14:10;7.57;;;7.57;;
71176;SDS011;58877;51.992;4.504;2024-01-30T06:16:35;8.05;;;8.05;;
71176;SDS011;58877;51.992;4.504;2024-01-30T06:19:01;8.11;;;8.11;;
71176;SDS011;58877;51.992;4.504;2024-01-30T06:21:27;8.04;;;8.01;;
71176;SDS011;58877;51.992;4.504;2024-01-30T06:23:52;8.15;;;8.13;;
71176;SDS011;58877;51.992;4.504;2024-01-30T06:26:18;8.06;;;8.06;;
71176;SDS011;58877;51.992;4.504;2024-01-30T06:28:44;8.14;;;8.14;;
71176;SDS011;58877;51.992;4.504;2024-01-30T06:31:09;7.68;;;7.68;;
71176;SDS011;58877;51.992;4.504;2024-01-30T06:33:38;7.77;;;7.75;;
71176;SDS011;58877;51.992;4.504;2024-01-30T06:36:03;7.89;;;7.89;;
71176;SDS011;58877;51.992;4.504;2024-01-30T06:38:29;7.50;;;7.48;;
71176;SDS011;58877;51.992;4.504;2024-01-30T06:40:54;7.96;;;7.95;;
71176;SDS011;58877;51.992;4.504;2024-01-30T06:43:21;8.26;;;8.26;;
71176;SDS011;58877;51.992;4.504;2024-01-30T06:45:47;7.73;;;7.72;;
71176;SDS011;58877;51.992;4.504;2024-01-30T06:48:12;7.99;;;7.98;;
71176;SDS011;58877;51.992;4.504;2024-01-30T06:50:38;7.88;;;7.88;;
71176;SDS011;58877;51.992;4.504;2024-01-30T06:53:04;7.60;;;7.59;;
71176;SDS011;58877;51.992;4.504;2024-01-30T06:55:29;8.30;;;8.29;;
71176;SDS011;58877;51.992;4.504;2024-01-30T06:57:55;7.90;;;7.87;;
71176;SDS011;58877;51.992;4.504;2024-01-30T07:00:23;7.54;;;7.49;;
71176;SDS011;58877;51.992;4.504;2024-01-30T07:02:49;7.29;;;7.28;;
71176;SDS011;58877;51.992;4.504;2024-01-30T07:05:15;7.79;;;7.79;;
71176;SDS011;58877;51.992;4.504;2024-01-30T07:07:40;8.06;;;8.05;;
71176;SDS011;58877;51.992;4.504;2024-01-30T07:10:06;7.78;;;7.77;;
71176;SDS011;58877;51.992;4.504;2024-01-30T07:12:32;7.73;;;7.73;;
71176;SDS011;58877;51.992;4.504;2024-01-30T07:15:01;7.76;;;7.76;;
71176;SDS011;58877;51.992;4.504;2024-01-30T07:17:34;7.36;;;7.36;;
71176;SDS011;58877;51.992;4.504;2024-01-30T07:20:00;7.92;;;7.92;;
71176;SDS011;58877;51.992;4.504;2024-01-30T07:22:27;7.93;;;7.87;;
71176;SDS011;58877;51.992;4.504;2024-01-30T07:24:53;7.48;;;7.42;;
71176;SDS011;58877;51.992;4.504;2024-01-30T07:27:19;7.86;;;7.77;;
71176;SDS011;58877;51.992;4.504;2024-01-30T07:29:44;7.52;;;7.45;;
71176;SDS011;58877;51.992;4.504;2024-01-30T07:32:10;7.18;;;7.16;;
71176;SDS011;58877;51.992;4.504;2024-01-30T07:34:36;7.53;;;7.50;;
71176;SDS011;58877;51.992;4.504;2024-01-30T07:37:02;7.80;;;7.77;;
71176;SDS011;58877;51.992;4.504;2024-01-30T07:39:33;7.41;;;7.39;;
71176;SDS011;58877;51.992;4.504;2024-01-30T07:42:00;7.53;;;7.52;;
71176;SDS011;58877;51.992;4.504;2024-01-30T07:44:25;7.69;;;7.69;;
71176;SDS011;58877;51.992;4.504;2024-01-30T07:46:51;7.09;;;7.09;;
71176;SDS011;58877;51.992;4.504;2024-01-30T07:49:17;6.99;;;6.99;;
71176;SDS011;58877;51.992;4.504;2024-01-30T07:51:43;7.16;;;7.14;;
71176;SDS011;58877;51.992;4.504;2024-01-30T07:54:18;7.17;;;7.14;;
71176;SDS011;58877;51.992;4.504;2024-01-30T07:56:44;7.61;;;7.60;;
71176;SDS011;58877;51.992;4.504;2024-01-30T07:59:10;7.47;;;7.44;;
71176;SDS011;58877;51.992;4.504;2024-01-30T08:01:36;7.27;;;7.23;;
71176;SDS011;58877;51.992;4.504;2024-01-30T08:04:02;7.39;;;7.39;;
71176;SDS011;58877;51.992;4.504;2024-01-30T08:06:28;7.66;;;7.66;;
71176;SDS011;58877;51.992;4.504;2024-01-30T08:08:54;7.67;;;7.67;;
71176;SDS011;58877;51.992;4.504;2024-01-30T08:11:20;7.35;;;7.35;;
71176;SDS011;58877;51.992;4.504;2024-01-30T08:13:52;7.36;;;7.36;;
71176;SDS011;58877;51.992;4.504;2024-01-30T08:16:18;7.69;;;7.68;;
71176;SDS011;58877;51.992;4.504;2024-01-30T08:18:44;7.25;;;7.25;;
71176;SDS011;58877;51.992;4.504;2024-01-30T08:21:10;7.78;;;7.75;;
71176;SDS011;58877;51.992;4.504;2024-01-30T08:23:37;7.94;;;7.91;;
71176;SDS011;58877;51.992;4.504;2024-01-30T08:26:04;7.78;;;7.76;;
71176;SDS011;58877;51.992;4.504;2024-01-30T08:28:30;7.46;;;7.46;;
71176;SDS011;58877;51.992;4.504;2024-01-30T08:30:55;7.75;;;7.75;;
71176;SDS011;58877;51.992;4.504;2024-01-30T08:33:21;7.47;;;7.47;;
71176;SDS011;58877;51.992;4.504;2024-01-30T08:35:47;7.46;;;7.45;;
71176;SDS011;58877;51.992;4.504;2024-01-30T08:38:15;7.58;;;7.58;;
71176;SDS011;58877;51.992;4.504;2024-01-30T08:40:41;7.58;;;7.58;;
71176;SDS011;58877;51.992;4.504;2024-01-30T08:43:07;7.51;;;7.51;;
71176;SDS011;58877;51.992;4.504;2024-01-30T08:45:35;7.31;;;7.30;;
71176;SDS011;58877;51.992;4.504;2024-01-30T08:48:01;7.63;;;7.58;;
71176;SDS011;58877;51.992;4.504;2024-01-30T08:50:26;7.94;;;7.91;;
71176;SDS011;58877;51.992;4.504;2024-01-30T08:52:52;7.76;;;7.74;;
71176;SDS011;58877;51.992;4.504;2024-01-30T08:55:18;8.08;;;8.05;;
71176;SDS011;58877;51.992;4.504;2024-01-30T08:57:44;7.65;;;7.62;;
71176;SDS011;58877;51.992;4.504;2024-01-30T09:00:09;7.85;;;7.85;;
71176;SDS011;58877;51.992;4.504;2024-01-30T09:02:36;7.89;;;7.89;;
71176;SDS011;58877;51.992;4.504;2024-01-30T09:05:02;7.52;;;7.52;;
71176;SDS011;58877;51.992;4.504;2024-01-30T09:07:27;7.49;;;7.49;;
71176;SDS011;58877;51.992;4.504;2024-01-30T09:09:53;7.43;;;7.41;;
71176;SDS011;58877;51.992;4.504;2024-01-30T09:12:19;7.96;;;7.95;;
71176;SDS011;58877;51.992;4.504;2024-01-30T09:14:44;7.68;;;7.68;;
71176;SDS011;58877;51.992;4.504;2024-01-30T09:17:38;7.32;;;7.32;;
71176;SDS011;58877;51.992;4.504;2024-01-30T09:20:04;7.64;;;7.64;;
71176;SDS011;58877;51.992;4.504;2024-01-30T09:22:34;7.16;;;7.15;;
71176;SDS011;58877;51.992;4.504;2024-01-30T09:25:07;7.18;;;7.18;;
71176;SDS011;58877;51.992;4.504;2024-01-30T09:27:35;6.93;;;6.92;;
71176;SDS011;58877;51.992;4.504;2024-01-30T09:30:01;6.34;;;6.32;;
71176;SDS011;58877;51.992;4.504;2024-01-30T09:32:27;6.65;;;6.64;;
71176;SDS011;58877;51.992;4.504;2024-01-30T09:34:54;6.09;;;6.04;;
71176;SDS011;58877;51.992;4.504;2024-01-30T09:37:28;5.19;;;5.11;;
71176;SDS011;58877;51.992;4.504;2024-01-30T09:40:07;4.84;;;4.78;;
71176;SDS011;58877;51.992;4.504;2024-01-30T09:42:52;4.71;;;4.52;;
71176;SDS011;58877;51.992;4.504;2024-01-30T09:45:40;4.43;;;4.22;;
71176;SDS011;58877;51.992;4.504;2024-01-30T09:48:19;4.89;;;4.54;;
71176;SDS011;58877;51.992;4.504;2024-01-30T09:50:54;4.96;;;4.60;;
71176;SDS011;58877;51.992;4.504;2024-01-30T09:53:38;4.57;;;4.22;;
71176;SDS011;58877;51.992;4.504;2024-01-30T09:56:20;4.60;;;4.29;;
71176;SDS011;58877;51.992;4.504;2024-01-30T09:58:46;4.23;;;3.86;;
71176;SDS011;58877;51.992;4.504;2024-01-30T10:01:15;3.90;;;3.58;;
71176;SDS011;58877;51.992;4.504;2024-01-30T10:03:44;4.07;;;3.69;;
71176;SDS011;58877;51.992;4.504;2024-01-30T10:06:13;3.96;;;3.45;;
71176;SDS011;58877;51.992;4.504;2024-01-30T10:08:41;3.83;;;3.27;;
71176;SDS011;58877;51.992;4.504;2024-01-30T10:11:12;3.84;;;3.33;;
71176;SDS011;58877;51.992;4.504;2024-01-30T10:13:38;3.89;;;3.33;;
71176;SDS011;58877;51.992;4.504;2024-01-30T10:16:05;4.03;;;3.39;;
71176;SDS011;58877;51.992;4.504;2024-01-30T10:18:34;3.73;;;3.13;;
71176;SDS011;58877;51.992;4.504;2024-01-30T10:21:05;3.82;;;3.14;;
71176;SDS011;58877;51.992;4.504;2024-01-30T10:23:34;3.94;;;3.20;;
71176;SDS011;58877;51.992;4.504;2024-01-30T10:26:04;3.39;;;2.83;;
71176;SDS011;58877;51.992;4.504;2024-01-30T10:28:33;2.71;;;2.41;;
71176;SDS011;58877;51.992;4.504;2024-01-30T10:31:28;2.64;;;2.34;;
71176;SDS011;58877;51.992;4.504;2024-01-30T10:34:08;2.88;;;2.54;;
71176;SDS011;58877;51.992;4.504;2024-01-30T10:36:39;3.04;;;2.63;;
71176;SDS011;58877;51.992;4.504;2024-01-30T10:39:22;3.07;;;2.61;;
71176;SDS011;58877;51.992;4.504;2024-01-30T10:41:54;2.55;;;2.21;;
71176;SDS011;58877;51.992;4.504;2024-01-30T10:44:22;2.97;;;2.51;;
71176;SDS011;58877;51.992;4.504;2024-01-30T10:46:53;3.26;;;2.82;;
71176;SDS011;58877;51.992;4.504;2024-01-30T10:49:25;2.64;;;2.31;;
71176;SDS011;58877;51.992;4.504;2024-01-30T10:51:52;3.49;;;3.09;;
71176;SDS011;58877;51.992;4.504;2024-01-30T10:54:20;2.81;;;2.52;;
71176;SDS011;58877;51.992;4.504;2024-01-30T10:56:49;2.93;;;2.68;;
71176;SDS011;58877;51.992;4.504;2024-01-30T10:59:16;2.96;;;2.74;;
71176;SDS011;58877;51.992;4.504;2024-01-30T11:01:42;2.87;;;2.68;;
71176;SDS011;58877;51.992;4.504;2024-01-30T11:04:08;2.44;;;2.26;;
71176;SDS011;58877;51.992;4.504;2024-01-30T11:06:40;2.30;;;2.12;;
71176;SDS011;58877;51.992;4.504;2024-01-30T11:09:10;1.88;;;1.69;;
71176;SDS011;58877;51.992;4.504;2024-01-30T11:11:50;1.67;;;1.51;;
71176;SDS011;58877;51.992;4.504;2024-01-30T11:14:34;1.54;;;1.36;;
71176;SDS011;58877;51.992;4.504;2024-01-30T11:17:00;1.80;;;1.50;;
71176;SDS011;58877;51.992;4.504;2024-01-30T11:19:25;1.77;;;1.41;;
71176;SDS011;58877;51.992;4.504;2024-01-30T11:21:52;1.76;;;1.37;;
71176;SDS011;58877;51.992;4.504;2024-01-30T11:24:24;2.18;;;1.65;;
71176;SDS011;58877;51.992;4.504;2024-01-30T11:26:56;2.17;;;1.58;;
71176;SDS011;58877;51.992;4.504;2024-01-30T11:29:29;2.60;;;1.79;;
71176;SDS011;58877;51.992;4.504;2024-01-30T11:31:56;2.60;;;1.75;;
71176;SDS011;58877;51.992;4.504;2024-01-30T11:34:56;3.20;;;2.13;;
71176;SDS011;58877;51.992;4.504;2024-01-30T11:37:24;4.42;;;2.87;;
71176;SDS011;58877;51.992;4.504;2024-01-30T11:39:56;3.61;;;2.35;;
71176;SDS011;58877;51.992;4.504;2024-01-30T11:43:02;3.91;;;2.52;;
71176;SDS011;58877;51.992;4.504;2024-01-30T11:45:36;4.28;;;2.72;;
71176;SDS011;58877;51.992;4.504;2024-01-30T11:48:07;4.79;;;3.00;;
71176;SDS011;58877;51.992;4.504;2024-01-30T11:50:35;4.16;;;2.59;;
71176;SDS011;58877;51.992;4.504;2024-01-30T11:53:06;3.90;;;2.44;;
71176;SDS011;58877;51.992;4.504;2024-01-30T11:55:37;4.75;;;2.93;;
71176;SDS011;58877;51.992;4.504;2024-01-30T11:58:10;3.59;;;2.24;;
71176;SDS011;58877;51.992;4.504;2024-01-30T12:00:39;3.98;;;2.49;;
71176;SDS011;58877;51.992;4.504;2024-01-30T12:03:09;3.43;;;2.15;;
71176;SDS011;58877;51.992;4.504;2024-01-30T12:05:39;3.26;;;2.06;;
71176;SDS011;58877;51.992;4.504;2024-01-30T12:08:13;3.40;;;2.16;;
71176;SDS011;58877;51.992;4.504;2024-01-30T12:10:44;2.93;;;1.90;;
71176;SDS011;58877;51.992;4.504;2024-01-30T12:13:13;3.01;;;1.95;;
71176;SDS011;58877;51.992;4.504;2024-01-30T12:15:42;3.58;;;2.28;;
71176;SDS011;58877;51.992;4.504;2024-01-30T12:18:08;3.80;;;2.39;;
71176;SDS011;58877;51.992;4.504;2024-01-30T12:20:37;4.10;;;2.61;;
71176;SDS011;58877;51.992;4.504;2024-01-30T12:23:08;4.42;;;2.82;;
71176;SDS011;58877;51.992;4.504;2024-01-30T12:25:43;3.82;;;2.41;;
71176;SDS011;58877;51.992;4.504;2024-01-30T12:28:12;4.95;;;3.15;;
71176;SDS011;58877;51.992;4.504;2024-01-30T12:30:38;4.16;;;2.68;;
71176;SDS011;58877;51.992;4.504;2024-01-30T12:33:06;4.28;;;2.83;;
71176;SDS011;58877;51.992;4.504;2024-01-30T12:35:34;3.88;;;2.66;;
71176;SDS011;58877;51.992;4.504;2024-01-30T12:37:59;3.72;;;2.55;;
71176;SDS011;58877;51.992;4.504;2024-01-30T12:40:25;3.26;;;2.25;;
71176;SDS011;58877;51.992;4.504;2024-01-30T12:42:51;3.53;;;2.44;;
71176;SDS011;58877;51.992;4.504;2024-01-30T12:45:17;3.37;;;2.40;;
71176;SDS011;58877;51.992;4.504;2024-01-30T12:47:46;3.65;;;2.64;;
71176;SDS011;58877;51.992;4.504;2024-01-30T12:50:13;3.96;;;2.81;;
71176;SDS011;58877;51.992;4.504;2024-01-30T12:52:41;3.31;;;2.31;;
71176;SDS011;58877;51.992;4.504;2024-01-30T12:55:07;4.51;;;3.06;;
71176;SDS011;58877;51.992;4.504;2024-01-30T12:57:33;4.37;;;2.91;;
71176;SDS011;58877;51.992;4.504;2024-01-30T13:00:01;3.53;;;2.35;;
71176;SDS011;58877;51.992;4.504;2024-01-30T13:02:27;4.59;;;3.00;;
71176;SDS011;58877;51.992;4.504;2024-01-30T13:05:00;4.40;;;2.87;;
71176;SDS011;58877;51.992;4.504;2024-01-30T13:07:28;4.83;;;3.09;;
71176;SDS011;58877;51.992;4.504;2024-01-30T13:09:54;4.45;;;2.86;;
71176;SDS011;58877;51.992;4.504;2024-01-30T13:12:20;3.65;;;2.33;;
71176;SDS011;58877;51.992;4.504;2024-01-30T13:15:07;3.98;;;2.57;;
71176;SDS011;58877;51.992;4.504;2024-01-30T13:17:58;3.28;;;2.12;;
71176;SDS011;58877;51.992;4.504;2024-01-30T13:20:27;4.08;;;2.62;;
71176;SDS011;58877;51.992;4.504;2024-01-30T13:22:56;4.96;;;3.17;;
71176;SDS011;58877;51.992;4.504;2024-01-30T13:25:21;3.45;;;2.21;;
71176;SDS011;58877;51.992;4.504;2024-01-30T13:27:48;3.32;;;2.20;;
71176;SDS011;58877;51.992;4.504;2024-01-30T13:30:18;3.21;;;2.13;;
71176;SDS011;58877;51.992;4.504;2024-01-30T13:32:45;3.49;;;2.29;;
71176;SDS011;58877;51.992;4.504;2024-01-30T13:35:14;3.46;;;2.31;;
71176;SDS011;58877;51.992;4.504;2024-01-30T13:37:41;3.22;;;2.20;;
71176;SDS011;58877;51.992;4.504;2024-01-30T13:40:07;3.41;;;2.42;;
71176;SDS011;58877;51.992;4.504;2024-01-30T13:42:34;2.74;;;2.02;;
71176;SDS011;58877;51.992;4.504;2024-01-30T13:44:59;2.76;;;2.07;;
71176;SDS011;58877;51.992;4.504;2024-01-30T13:47:25;2.81;;;2.15;;
71176;SDS011;58877;51.992;4.504;2024-01-30T13:49:51;2.65;;;2.08;;
71176;SDS011;58877;51.992;4.504;2024-01-30T13:52:18;2.45;;;1.99;;
71176;SDS011;58877;51.992;4.504;2024-01-30T13:54:44;2.53;;;2.12;;
71176;SDS011;58877;51.992;4.504;2024-01-30T13:57:09;2.50;;;2.17;;
71176;SDS011;58877;51.992;4.504;2024-01-30T13:59:37;2.35;;;2.06;;
71176;SDS011;58877;51.992;4.504;2024-01-30T14:02:03;2.42;;;2.19;;
71176;SDS011;58877;51.992;4.504;2024-01-30T14:04:29;2.79;;;2.53;;
71176;SDS011;58877;51.992;4.504;2024-01-30T14:06:54;2.78;;;2.50;;
71176;SDS011;58877;51.992;4.504;2024-01-30T14:09:21;2.76;;;2.48;;
71176;SDS011;58877;51.992;4.504;2024-01-30T14:11:46;2.67;;;2.48;;
71176;SDS011;58877;51.992;4.504;2024-01-30T14:14:12;2.58;;;2.41;;
71176;SDS011;58877;51.992;4.504;2024-01-30T14:16:38;2.22;;;2.06;;
71176;SDS011;58877;51.992;4.504;2024-01-30T14:19:04;2.28;;;2.15;;
71176;SDS011;58877;51.992;4.504;2024-01-30T14:21:31;2.20;;;2.05;;
71176;SDS011;58877;51.992;4.504;2024-01-30T14:23:59;2.62;;;2.41;;
71176;SDS011;58877;51.992;4.504;2024-01-30T14:26:25;2.84;;;2.64;;
71176;SDS011;58877;51.992;4.504;2024-01-30T14:28:51;2.91;;;2.73;;
71176;SDS011;58877;51.992;4.504;2024-01-30T14:31:16;2.68;;;2.53;;
71176;SDS011;58877;51.992;4.504;2024-01-30T14:33:43;3.13;;;2.91;;
71176;SDS011;58877;51.992;4.504;2024-01-30T14:36:09;2.74;;;2.59;;
71176;SDS011;58877;51.992;4.504;2024-01-30T14:38:35;2.63;;;2.47;;
71176;SDS011;58877;51.992;4.504;2024-01-30T14:41:01;2.64;;;2.50;;
71176;SDS011;58877;51.992;4.504;2024-01-30T14:43:27;3.06;;;2.92;;
71176;SDS011;58877;51.992;4.504;2024-01-30T14:45:52;3.17;;;3.07;;
71176;SDS011;58877;51.992;4.504;2024-01-30T14:48:18;2.83;;;2.75;;
71176;SDS011;58877;51.992;4.504;2024-01-30T14:50:43;2.68;;;2.61;;
71176;SDS011;58877;51.992;4.504;2024-01-30T14:53:09;2.93;;;2.86;;